Nearby METAR Reports

 

NZAA - Auckland Intl Ar, New Zealand
Distance from station: SW 18km
Updated: 27/09/2020 00:00
Mostly cloudy
Mostly cloudy
 Wind from NNE
Wind: NNE 20 km/h
Temperature: 16°C
Dew Point: 15°C
Humidity: 94%
Barometer: 1013 hPa
Clouds: Mostly cloudy
Visibility: 10 km
Cloud details: Few Clouds 335 m
Partly cloudy 1067 m
Mostly cloudy 1981 m
2020/09/26 12:00 NZAA 261200Z AUTO 03011KT 9999 FEW011/// SCT035/// BKN065/// 16/15 Q1013 NOSIG
NZWN - Wellington Intl, New Zealand
Distance from station: S 493km
Updated: 27/09/2020 00:00
Heavy rain, Mostly cloudy
Heavy rain, Mostly cloudy
 Wind from N
Wind: N 48 km/h, Gust: 69 km/h
Temperature: 14°C
Dew Point: 14°C
Humidity: 100%
Barometer: 1002 hPa
Summary: Heavy rain
Clouds: Mostly cloudy
Visibility: 3 km
Cloud details: Mostly cloudy 396 m
Mostly cloudy 549 m
Mostly cloudy 701 m
2020/09/26 12:00 NZWN 261200Z AUTO 01026G37KT 3400 +RA BKN013/// BKN018/// BKN023/// 14/14 Q1002 TEMPO SCT014 TEMPO 9000 -RA
 
NZCH - Christchurch Int, New Zealand
Distance from station: SSW 759km
Updated: 27/09/2020 00:00
Clear
Clear
 Wind from NE
Wind: NE 31 km/h
Temperature: 13°C
Dew Point: 6°C
Humidity: 63%
Barometer: 990 hPa
Clouds: Clear
Visibility: 10 km
2020/09/26 12:00 NZCH 261200Z AUTO 05017KT 9999 NCD 13/06 Q0990 NOSIG
YSNF - Norfolk Island A, Australia
Distance from station: NW 1091km
Updated: 27/09/2020 00:00
Rain showers, Overcast
Rain showers, Overcast
 Wind from NW
Wind: NW 28 km/h
Temperature: 17°C
Dew Point: 16°C
Humidity: 94%
Barometer: 1017 hPa
Summary: Rain Showers
Clouds: Overcast
Visibility: 3 km
Cloud details: Mostly cloudy 91 m
Mostly cloudy 213 m
Overcast 549 m
2020/09/26 12:00 YSNF 261200Z AUTO 31015KT 3200 SHRA BKN003 BKN007 OVC018 17/16 Q1017